Terminal Aerodrome Forecast
Issued by NWS Chicago, IL

Home | Current Version | Previous Version | Text Only | Print | Product List | Glossary Off
Versions: 1 2 3 4 5 6 7 8 9 10 11 12 13 14 15 16 17 18 19 20 21 22 23 24 25 26 27 28 29 30

000
FTUS43 KLOT 261905 AAA
TAFRFD
TAF AMD
KRFD 261905Z 2619/2718 21014G26KT P6SM SCT025 BKN150
      TEMPO 2620/2622 5SM -RA BKN020
     FM270000 23010KT P6SM BKN030
     FM270500 23009KT P6SM SCT035 BKN250
     FM270900 23010KT 5SM BR BKN015
     FM271300 26010KT P6SM SCT025=

USA.gov is the U.S. government's official web portal to all federal, state and local government web resources and services.